createdAt,value
2018-04-15T00:04:26.765Z,2.36
2018-04-15T00:10:17.488Z,1.96
2018-04-15T00:16:08.235Z,2.51
2018-04-15T00:21:58.944Z,2.12
2018-04-15T00:27:49.681Z,2.07
2018-04-15T00:33:40.374Z,1.78
2018-04-15T00:39:31.092Z,2.31
2018-04-15T00:45:21.856Z,2.14
2018-04-15T00:51:12.515Z,2.03
2018-04-15T00:57:03.313Z,2.14
2018-04-15T01:02:53.917Z,1.69
2018-04-15T01:08:44.637Z,1.9
2018-04-15T01:14:35.370Z,2.21
2018-04-15T01:20:26.117Z,2.19
2018-04-15T01:26:16.815Z,1.45
2018-04-15T01:32:07.508Z,1.62
2018-04-15T01:37:58.213Z,1.49
2018-04-15T01:43:49.033Z,1.83
2018-04-15T01:49:39.708Z,1.51
2018-04-15T01:55:30.423Z,1.55
2018-04-15T02:01:21.075Z,1.91
2018-04-15T02:07:11.795Z,2.19
2018-04-15T02:13:02.507Z,2.19
2018-04-15T02:18:53.222Z,1.84
2018-04-15T02:24:43.898Z,2.16
2018-04-15T02:30:34.647Z,1.96
2018-04-15T02:36:25.373Z,2.03
2018-04-15T02:42:16.076Z,1.88
2018-04-15T02:48:06.812Z,2.13
2018-04-15T02:53:57.482Z,2.07
2018-04-15T02:59:48.252Z,2.15
2018-04-15T03:05:38.949Z,2.08
2018-04-15T03:11:29.665Z,2.17
2018-04-15T03:17:20.319Z,2.28
2018-04-15T03:23:11.071Z,2.23
2018-04-15T03:29:01.757Z,2.04
2018-04-15T03:34:52.427Z,2.18
2018-04-15T03:40:43.162Z,2.35
2018-04-15T03:46:33.862Z,1.95
2018-04-15T03:52:24.617Z,1.51
2018-04-15T03:58:15.328Z,2.66
2018-04-15T04:04:06.074Z,1.68
2018-04-15T04:09:56.738Z,1.97
2018-04-15T04:15:47.479Z,2.03
2018-04-15T04:21:38.191Z,2.59
2018-04-15T04:27:28.875Z,1.85
2018-04-15T04:33:19.610Z,2.76
2018-04-15T04:39:10.301Z,2.5
2018-04-15T04:45:01.072Z,3.88
2018-04-15T04:50:51.745Z,2.74
2018-04-15T04:56:42.439Z,2.37
2018-04-15T05:02:33.131Z,2.45
2018-04-15T05:08:23.878Z,2.34
2018-04-15T05:14:14.644Z,2.44
2018-04-15T05:20:05.352Z,2.37
2018-04-15T05:25:56.005Z,2.35
2018-04-15T05:31:46.731Z,2.61
2018-04-15T05:37:37.478Z,2.86
2018-04-15T05:43:28.128Z,2.7
2018-04-15T05:49:18.826Z,2.69
2018-04-15T05:55:09.577Z,3.09
2018-04-15T06:01:00.300Z,2.61
2018-04-15T06:06:50.981Z,3
2018-04-15T06:12:41.664Z,2.94
2018-04-15T06:18:32.420Z,3.09
2018-04-15T06:24:23.142Z,3.2
2018-04-15T06:30:13.885Z,3.17
2018-04-15T06:36:04.549Z,3.38
2018-04-15T06:41:55.307Z,3.26
2018-04-15T06:47:45.984Z,3.77
2018-04-15T06:53:36.700Z,3.31
2018-04-15T06:59:27.406Z,3.55
2018-04-15T07:05:18.099Z,3.43
2018-04-15T07:11:08.884Z,3.89
2018-04-15T07:16:59.573Z,4.04
2018-04-15T07:22:50.276Z,3.22
2018-04-15T07:28:41.022Z,2.85
2018-04-15T07:34:31.729Z,3
2018-04-15T07:40:22.398Z,3.52
2018-04-15T07:46:13.106Z,3.62
2018-04-15T07:52:03.829Z,3.37
2018-04-15T07:57:54.503Z,3.17
2018-04-15T08:03:45.231Z,3.4
2018-04-15T08:09:35.978Z,3.49
2018-04-15T08:15:26.638Z,2.98
2018-04-15T08:21:17.387Z,3.35
2018-04-15T08:27:08.058Z,3.44
2018-04-15T08:32:58.805Z,3.62
2018-04-15T08:38:49.518Z,3.37
2018-04-15T08:44:40.271Z,3.04
2018-04-15T08:50:30.938Z,3.01
2018-04-15T08:56:21.664Z,3.51
2018-04-15T09:02:12.359Z,2.92
2018-04-15T09:08:03.066Z,2.86
2018-04-15T09:13:53.807Z,3.5
2018-04-15T09:19:44.567Z,3.06
2018-04-15T09:25:35.199Z,3.02
2018-04-15T09:31:25.928Z,3.98
2018-04-15T09:37:16.628Z,3.59
2018-04-15T09:43:07.386Z,3.97
2018-04-15T09:48:58.073Z,3.3
2018-04-15T09:54:48.787Z,3.43
2018-04-15T10:00:39.909Z,3.19
2018-04-15T10:06:30.245Z,3.31
2018-04-15T10:12:20.959Z,3.46
2018-04-15T10:18:11.698Z,3.34
2018-04-15T10:24:02.441Z,4.07
2018-04-15T10:29:53.092Z,3.63
2018-04-15T10:35:43.856Z,4.26
2018-04-15T10:41:34.486Z,3.96
2018-04-15T10:47:25.210Z,4.15
2018-04-15T10:53:15.942Z,4.56
2018-04-15T10:59:06.648Z,3.37
2018-04-15T11:04:57.365Z,4.3
2018-04-15T11:10:48.075Z,4.35
2018-04-15T11:16:38.832Z,2.74
2018-04-15T11:22:29.492Z,3.86
2018-04-15T11:28:20.222Z,4.43
2018-04-15T11:34:10.917Z,3.1
2018-04-15T11:40:01.670Z,3.58
2018-04-15T11:45:52.351Z,4.06
2018-04-15T11:51:43.155Z,4.07
2018-04-15T11:57:33.791Z,4.11
2018-04-15T12:03:24.568Z,3.75
2018-04-15T12:09:18.347Z,4.43
2018-04-15T12:15:05.959Z,3.37
2018-04-15T12:20:56.677Z,4.39
2018-04-15T12:26:47.426Z,4.24
2018-04-15T12:32:38.123Z,4.5
2018-04-15T12:38:28.930Z,4.15
2018-04-15T12:44:19.612Z,4.49
2018-04-15T12:50:10.300Z,3.7
2018-04-15T12:56:00.963Z,4.96
2018-04-15T13:01:51.687Z,5.04
2018-04-15T13:07:42.384Z,5.16
2018-04-15T13:13:33.097Z,3.8
2018-04-15T13:19:23.815Z,4.48
2018-04-15T13:25:14.559Z,4.98
2018-04-15T13:31:05.293Z,5.23
2018-04-15T13:36:56.072Z,6.43
2018-04-15T13:42:46.692Z,5.78
2018-04-15T13:48:37.419Z,5.24
2018-04-15T13:54:28.192Z,4.68
2018-04-15T14:00:18.859Z,5.48
2018-04-15T14:06:09.638Z,6.12
2018-04-15T14:12:00.293Z,5.17
2018-04-15T14:17:50.990Z,5.42
2018-04-15T14:23:41.746Z,6.36
2018-04-15T14:29:32.421Z,5.62
2018-04-15T14:35:23.131Z,4.71
2018-04-15T14:41:13.870Z,4.62
2018-04-15T14:47:04.618Z,3.91
2018-04-15T14:52:55.279Z,3.96
2018-04-15T14:58:45.976Z,4.43
2018-04-15T15:04:36.781Z,4.34
2018-04-15T15:10:27.427Z,4.35
2018-04-15T15:16:18.205Z,4.38
2018-04-15T15:22:08.880Z,4.11
2018-04-15T15:27:59.599Z,6.03
2018-04-15T15:33:50.281Z,5.35
2018-04-15T15:39:40.994Z,6.2
2018-04-15T15:45:31.748Z,5.16
2018-04-15T15:53:51.536Z,4.79
2018-04-15T15:59:42.245Z,5.59
2018-04-15T16:05:32.954Z,5.46
2018-04-15T16:11:24.011Z,6.06
2018-04-15T16:17:14.431Z,5.89
2018-04-15T16:23:05.127Z,6.52
2018-04-15T16:28:55.801Z,5.3
2018-04-15T16:34:46.537Z,5.08
2018-04-15T16:40:37.260Z,5.25
2018-04-15T16:46:28.009Z,5.22
2018-04-15T16:52:18.643Z,4.55
2018-04-15T16:58:12.142Z,4.51
2018-04-15T17:04:00.135Z,4.3
2018-04-15T17:09:50.879Z,4.76
2018-04-15T17:15:41.537Z,4.57
2018-04-15T17:21:32.272Z,4.96
2018-04-15T17:27:22.988Z,4.79
2018-04-15T17:33:13.721Z,4.97
2018-04-15T17:39:04.448Z,4.6
2018-04-15T17:44:55.126Z,5.51
2018-04-15T17:50:45.904Z,5.36
2018-04-15T17:56:36.595Z,4.77
2018-04-15T18:02:27.269Z,4.52
2018-04-15T18:08:18.024Z,5.41
2018-04-15T18:14:08.708Z,4.46
2018-04-15T18:19:59.473Z,4.85
2018-04-15T18:25:50.168Z,4.32
2018-04-15T18:31:40.840Z,6.49
2018-04-15T18:37:31.599Z,5.47
2018-04-15T18:43:22.237Z,5.18
2018-04-15T18:49:12.989Z,4.96
2018-04-15T18:55:03.713Z,5.85
2018-04-15T19:00:54.380Z,6.29
2018-04-15T19:06:45.100Z,6.81
2018-04-15T19:12:35.955Z,8.48
2018-04-15T19:18:26.718Z,6.25
2018-04-15T19:24:17.368Z,18.72
2018-04-15T19:30:08.067Z,16.47
2018-04-15T19:35:58.829Z,17.54
2018-04-15T19:41:49.542Z,14.73
2018-04-15T19:47:40.236Z,19.38
2018-04-15T19:53:31.012Z,21.93
2018-04-15T19:59:21.672Z,12.63
2018-04-15T20:05:12.392Z,11.8
2018-04-15T20:11:03.057Z,7.51
2018-04-15T20:16:53.800Z,14.23
2018-04-15T20:22:44.553Z,10.59
2018-04-15T20:28:35.247Z,4.68
2018-04-15T20:34:25.981Z,4.77
2018-04-15T20:40:16.720Z,4.59
2018-04-15T20:46:11.854Z,5
2018-04-15T20:51:58.129Z,4.94
2018-04-15T20:57:48.798Z,4.65
2018-04-15T21:03:39.544Z,5.32
2018-04-15T21:09:30.229Z,4.84
2018-04-15T21:15:20.962Z,5.32
2018-04-15T21:21:12.310Z,4.92
2018-04-15T21:27:02.390Z,4.76
2018-04-15T21:32:53.080Z,5.04
2018-04-15T21:38:43.772Z,5.7
2018-04-15T21:44:34.483Z,5.4
2018-04-15T21:50:25.200Z,5.37
2018-04-15T21:56:15.951Z,5.11
2018-04-15T22:02:06.683Z,5.82
2018-04-15T22:07:57.358Z,5.15
2018-04-15T22:13:48.050Z,5.07
2018-04-15T22:19:38.795Z,4.95
2018-04-15T22:25:29.531Z,4.92
2018-04-15T22:31:20.241Z,6.53
2018-04-15T22:37:10.967Z,4.93
2018-04-15T22:43:01.725Z,5.02
2018-04-15T22:48:52.406Z,4.79
2018-04-15T22:54:43.082Z,4.87
2018-04-15T23:00:33.859Z,5.46
2018-04-15T23:06:24.534Z,4.66
2018-04-15T23:12:15.290Z,4.77
2018-04-15T23:18:05.905Z,5.2
2018-04-15T23:23:56.619Z,5.1
2018-04-15T23:29:47.325Z,4.8
2018-04-15T23:35:38.039Z,4.73
2018-04-15T23:41:28.740Z,4.79
2018-04-15T23:47:19.479Z,5.47
2018-04-15T23:53:10.194Z,5.25
2018-04-15T23:59:00.917Z,4.68
